sensor_id;sensor_type;location;lat;lon;timestamp;P1;durP1;ratioP1;P2;durP2;ratioP2
76848;SDS011;65814;51.134;16.980;2023-03-20T00:01:13;52.20;;;30.20;;
76848;SDS011;65814;51.134;16.980;2023-03-20T00:06:30;50.90;;;27.10;;
76848;SDS011;65814;51.134;16.980;2023-03-20T00:08:59;46.70;;;27.20;;
76848;SDS011;65814;51.134;16.980;2023-03-20T00:11:41;55.10;;;30.60;;
76848;SDS011;65814;51.134;16.980;2023-03-20T00:14:15;54.70;;;29.60;;
76848;SDS011;65814;51.134;16.980;2023-03-20T00:16:45;46.70;;;27.30;;
76848;SDS011;65814;51.134;16.980;2023-03-20T00:19:21;52.10;;;29.30;;
76848;SDS011;65814;51.134;16.980;2023-03-20T00:21:51;46.30;;;29.40;;
76848;SDS011;65814;51.134;16.980;2023-03-20T00:24:20;52.20;;;29.50;;
76848;SDS011;65814;51.134;16.980;2023-03-20T00:26:48;51.90;;;29.60;;
76848;SDS011;65814;51.134;16.980;2023-03-20T00:31:49;51.50;;;30.00;;
76848;SDS011;65814;51.134;16.980;2023-03-20T00:34:18;50.10;;;30.90;;
76848;SDS011;65814;51.134;16.980;2023-03-20T00:36:48;48.10;;;28.40;;
76848;SDS011;65814;51.134;16.980;2023-03-20T00:39:17;48.20;;;28.90;;
76848;SDS011;65814;51.134;16.980;2023-03-20T00:41:52;48.80;;;28.30;;
76848;SDS011;65814;51.134;16.980;2023-03-20T00:47:16;50.60;;;29.60;;
76848;SDS011;65814;51.134;16.980;2023-03-20T00:49:47;51.80;;;29.30;;
76848;SDS011;65814;51.134;16.980;2023-03-20T00:52:17;49.80;;;29.90;;
76848;SDS011;65814;51.134;16.980;2023-03-20T00:54:47;56.10;;;30.50;;
76848;SDS011;65814;51.134;16.980;2023-03-20T00:59:55;51.00;;;29.90;;
76848;SDS011;65814;51.134;16.980;2023-03-20T01:02:26;51.90;;;30.50;;
76848;SDS011;65814;51.134;16.980;2023-03-20T01:04:58;47.40;;;29.80;;
76848;SDS011;65814;51.134;16.980;2023-03-20T01:07:26;47.60;;;29.50;;
76848;SDS011;65814;51.134;16.980;2023-03-20T01:09:55;49.60;;;30.80;;
76848;SDS011;65814;51.134;16.980;2023-03-20T01:12:23;48.10;;;29.70;;
76848;SDS011;65814;51.134;16.980;2023-03-20T01:14:52;50.30;;;30.80;;
76848;SDS011;65814;51.134;16.980;2023-03-20T01:17:23;44.40;;;30.60;;
76848;SDS011;65814;51.134;16.980;2023-03-20T01:19:53;48.30;;;29.10;;
76848;SDS011;65814;51.134;16.980;2023-03-20T01:22:21;49.20;;;28.20;;
76848;SDS011;65814;51.134;16.980;2023-03-20T01:24:49;48.30;;;31.30;;
76848;SDS011;65814;51.134;16.980;2023-03-20T01:27:17;47.90;;;28.70;;
76848;SDS011;65814;51.134;16.980;2023-03-20T01:29:46;43.70;;;28.40;;
76848;SDS011;65814;51.134;16.980;2023-03-20T01:32:15;45.80;;;26.50;;
76848;SDS011;65814;51.134;16.980;2023-03-20T01:34:44;45.00;;;26.70;;
76848;SDS011;65814;51.134;16.980;2023-03-20T01:37:16;41.10;;;29.10;;
76848;SDS011;65814;51.134;16.980;2023-03-20T01:39:44;42.30;;;25.90;;
76848;SDS011;65814;51.134;16.980;2023-03-20T01:42:13;42.90;;;26.90;;
76848;SDS011;65814;51.134;16.980;2023-03-20T01:44:42;44.20;;;27.30;;
76848;SDS011;65814;51.134;16.980;2023-03-20T01:47:14;45.50;;;29.10;;
76848;SDS011;65814;51.134;16.980;2023-03-20T01:52:52;43.90;;;28.30;;
76848;SDS011;65814;51.134;16.980;2023-03-20T01:55:26;43.80;;;26.30;;
76848;SDS011;65814;51.134;16.980;2023-03-20T01:57:55;43.90;;;27.20;;
76848;SDS011;65814;51.134;16.980;2023-03-20T02:00:25;42.10;;;25.90;;
76848;SDS011;65814;51.134;16.980;2023-03-20T02:02:53;39.90;;;24.90;;
76848;SDS011;65814;51.134;16.980;2023-03-20T02:05:22;37.80;;;24.20;;
76848;SDS011;65814;51.134;16.980;2023-03-20T02:10:45;37.90;;;25.60;;
76848;SDS011;65814;51.134;16.980;2023-03-20T02:13:14;46.80;;;26.00;;
76848;SDS011;65814;51.134;16.980;2023-03-20T02:15:56;37.50;;;24.20;;
76848;SDS011;65814;51.134;16.980;2023-03-20T02:18:32;37.30;;;23.10;;
76848;SDS011;65814;51.134;16.980;2023-03-20T02:39:05;31.90;;;24.00;;
76848;SDS011;65814;51.134;16.980;2023-03-20T02:41:46;31.20;;;22.50;;
76848;SDS011;65814;51.134;16.980;2023-03-20T02:47:10;34.60;;;22.90;;
76848;SDS011;65814;51.134;16.980;2023-03-20T02:55:19;32.50;;;23.60;;
76848;SDS011;65814;51.134;16.980;2023-03-20T03:00:43;34.20;;;26.40;;
76848;SDS011;65814;51.134;16.980;2023-03-20T03:06:06;33.50;;;23.20;;
76848;SDS011;65814;51.134;16.980;2023-03-20T03:08:38;33.30;;;23.30;;
76848;SDS011;65814;51.134;16.980;2023-03-20T03:11:09;32.20;;;22.50;;
76848;SDS011;65814;51.134;16.980;2023-03-20T03:13:50;34.10;;;23.20;;
76848;SDS011;65814;51.134;16.980;2023-03-20T03:16:25;32.20;;;21.90;;
76848;SDS011;65814;51.134;16.980;2023-03-20T03:19:03;40.00;;;25.80;;
76848;SDS011;65814;51.134;16.980;2023-03-20T03:24:02;33.10;;;22.80;;
76848;SDS011;65814;51.134;16.980;2023-03-20T03:26:32;35.20;;;23.30;;
76848;SDS011;65814;51.134;16.980;2023-03-20T03:29:04;30.00;;;21.70;;
76848;SDS011;65814;51.134;16.980;2023-03-20T03:31:44;35.70;;;23.20;;
76848;SDS011;65814;51.134;16.980;2023-03-20T03:34:13;29.80;;;22.10;;
76848;SDS011;65814;51.134;16.980;2023-03-20T03:42:28;35.30;;;25.50;;
76848;SDS011;65814;51.134;16.980;2023-03-20T03:47:56;33.10;;;22.30;;
76848;SDS011;65814;51.134;16.980;2023-03-20T03:50:50;28.10;;;20.80;;
76848;SDS011;65814;51.134;16.980;2023-03-20T03:53:21;28.70;;;20.80;;
76848;SDS011;65814;51.134;16.980;2023-03-20T03:56:11;31.30;;;20.50;;
76848;SDS011;65814;51.134;16.980;2023-03-20T03:58:44;32.00;;;20.10;;
76848;SDS011;65814;51.134;16.980;2023-03-20T04:01:15;24.30;;;19.30;;
76848;SDS011;65814;51.134;16.980;2023-03-20T04:03:48;29.50;;;20.50;;
76848;SDS011;65814;51.134;16.980;2023-03-20T04:06:17;30.20;;;20.80;;
76848;SDS011;65814;51.134;16.980;2023-03-20T04:08:46;26.70;;;19.10;;
76848;SDS011;65814;51.134;16.980;2023-03-20T04:11:14;27.10;;;19.80;;
76848;SDS011;65814;51.134;16.980;2023-03-20T04:13:48;26.10;;;18.60;;
76848;SDS011;65814;51.134;16.980;2023-03-20T04:16:18;25.00;;;18.20;;
76848;SDS011;65814;51.134;16.980;2023-03-20T04:18:47;27.60;;;18.00;;
76848;SDS011;65814;51.134;16.980;2023-03-20T04:21:16;30.20;;;18.60;;
76848;SDS011;65814;51.134;16.980;2023-03-20T04:23:44;25.00;;;19.40;;
76848;SDS011;65814;51.134;16.980;2023-03-20T04:26:12;29.40;;;18.90;;
76848;SDS011;65814;51.134;16.980;2023-03-20T04:28:40;27.10;;;19.10;;
76848;SDS011;65814;51.134;16.980;2023-03-20T04:31:08;21.50;;;17.10;;
76848;SDS011;65814;51.134;16.980;2023-03-20T04:33:37;23.90;;;17.10;;
76848;SDS011;65814;51.134;16.980;2023-03-20T04:36:05;25.50;;;18.10;;
76848;SDS011;65814;51.134;16.980;2023-03-20T04:38:33;28.70;;;17.40;;
76848;SDS011;65814;51.134;16.980;2023-03-20T04:41:02;24.90;;;18.20;;
76848;SDS011;65814;51.134;16.980;2023-03-20T04:43:30;30.70;;;17.90;;
76848;SDS011;65814;51.134;16.980;2023-03-20T04:45:58;27.00;;;18.10;;
76848;SDS011;65814;51.134;16.980;2023-03-20T04:48:26;24.60;;;18.70;;
76848;SDS011;65814;51.134;16.980;2023-03-20T04:50:57;24.60;;;17.60;;
76848;SDS011;65814;51.134;16.980;2023-03-20T04:53:25;22.80;;;16.10;;
76848;SDS011;65814;51.134;16.980;2023-03-20T04:55:53;26.10;;;17.40;;
76848;SDS011;65814;51.134;16.980;2023-03-20T04:58:21;22.30;;;16.20;;
76848;SDS011;65814;51.134;16.980;2023-03-20T05:00:50;24.80;;;16.20;;
76848;SDS011;65814;51.134;16.980;2023-03-20T05:03:18;23.70;;;17.30;;
76848;SDS011;65814;51.134;16.980;2023-03-20T05:05:49;23.30;;;16.60;;
76848;SDS011;65814;51.134;16.980;2023-03-20T05:08:17;24.60;;;17.60;;
76848;SDS011;65814;51.134;16.980;2023-03-20T05:10:45;25.50;;;17.30;;
76848;SDS011;65814;51.134;16.980;2023-03-20T05:13:13;23.90;;;16.20;;
76848;SDS011;65814;51.134;16.980;2023-03-20T05:15:43;23.10;;;15.80;;
76848;SDS011;65814;51.134;16.980;2023-03-20T05:18:11;23.60;;;16.40;;
76848;SDS011;65814;51.134;16.980;2023-03-20T05:20:39;23.20;;;16.10;;
76848;SDS011;65814;51.134;16.980;2023-03-20T05:23:07;22.00;;;15.20;;
76848;SDS011;65814;51.134;16.980;2023-03-20T05:25:35;23.90;;;17.80;;
76848;SDS011;65814;51.134;16.980;2023-03-20T05:28:03;24.20;;;16.30;;
76848;SDS011;65814;51.134;16.980;2023-03-20T05:30:31;25.10;;;16.20;;
76848;SDS011;65814;51.134;16.980;2023-03-20T05:32:59;22.40;;;17.10;;
76848;SDS011;65814;51.134;16.980;2023-03-20T05:35:27;20.50;;;15.40;;
76848;SDS011;65814;51.134;16.980;2023-03-20T05:37:55;21.30;;;16.30;;
76848;SDS011;65814;51.134;16.980;2023-03-20T05:40:23;21.10;;;16.00;;
76848;SDS011;65814;51.134;16.980;2023-03-20T05:42:51;20.50;;;15.20;;
76848;SDS011;65814;51.134;16.980;2023-03-20T05:45:19;22.50;;;16.70;;
76848;SDS011;65814;51.134;16.980;2023-03-20T05:47:48;32.20;;;17.60;;
76848;SDS011;65814;51.134;16.980;2023-03-20T05:50:16;22.00;;;15.90;;
76848;SDS011;65814;51.134;16.980;2023-03-20T05:52:47;22.90;;;15.50;;
76848;SDS011;65814;51.134;16.980;2023-03-20T05:55:15;20.40;;;15.90;;
76848;SDS011;65814;51.134;16.980;2023-03-20T05:57:43;25.10;;;16.70;;
76848;SDS011;65814;51.134;16.980;2023-03-20T06:00:11;23.70;;;16.00;;
76848;SDS011;65814;51.134;16.980;2023-03-20T06:02:39;22.80;;;16.60;;
76848;SDS011;65814;51.134;16.980;2023-03-20T06:05:07;21.90;;;17.30;;
76848;SDS011;65814;51.134;16.980;2023-03-20T06:07:35;23.80;;;15.80;;
76848;SDS011;65814;51.134;16.980;2023-03-20T06:10:03;21.60;;;15.50;;
76848;SDS011;65814;51.134;16.980;2023-03-20T06:12:31;19.60;;;14.30;;
76848;SDS011;65814;51.134;16.980;2023-03-20T06:14:59;21.00;;;15.00;;
76848;SDS011;65814;51.134;16.980;2023-03-20T06:17:29;21.50;;;14.70;;
76848;SDS011;65814;51.134;16.980;2023-03-20T06:19:59;20.70;;;15.10;;
76848;SDS011;65814;51.134;16.980;2023-03-20T06:22:28;20.80;;;14.90;;
76848;SDS011;65814;51.134;16.980;2023-03-20T06:24:56;19.70;;;15.60;;
76848;SDS011;65814;51.134;16.980;2023-03-20T06:27:23;22.50;;;15.70;;
76848;SDS011;65814;51.134;16.980;2023-03-20T06:29:52;22.60;;;16.00;;
76848;SDS011;65814;51.134;16.980;2023-03-20T06:32:19;20.50;;;14.70;;
76848;SDS011;65814;51.134;16.980;2023-03-20T06:34:47;23.30;;;15.10;;
76848;SDS011;65814;51.134;16.980;2023-03-20T06:37:16;23.30;;;14.90;;
76848;SDS011;65814;51.134;16.980;2023-03-20T06:39:44;18.70;;;15.80;;
76848;SDS011;65814;51.134;16.980;2023-03-20T06:42:12;23.90;;;16.10;;
76848;SDS011;65814;51.134;16.980;2023-03-20T06:44:42;21.70;;;15.90;;
76848;SDS011;65814;51.134;16.980;2023-03-20T06:47:10;22.20;;;16.10;;
76848;SDS011;65814;51.134;16.980;2023-03-20T06:49:38;23.40;;;15.60;;
76848;SDS011;65814;51.134;16.980;2023-03-20T06:52:06;21.90;;;16.60;;
76848;SDS011;65814;51.134;16.980;2023-03-20T06:54:35;19.50;;;15.00;;
76848;SDS011;65814;51.134;16.980;2023-03-20T06:57:03;19.40;;;14.70;;
76848;SDS011;65814;51.134;16.980;2023-03-20T06:59:31;20.20;;;14.30;;
76848;SDS011;65814;51.134;16.980;2023-03-20T07:01:58;20.40;;;14.70;;
76848;SDS011;65814;51.134;16.980;2023-03-20T07:04:27;20.10;;;15.50;;
76848;SDS011;65814;51.134;16.980;2023-03-20T07:06:55;21.70;;;14.50;;
76848;SDS011;65814;51.134;16.980;2023-03-20T07:09:23;22.40;;;15.80;;
76848;SDS011;65814;51.134;16.980;2023-03-20T07:11:51;22.60;;;15.50;;
76848;SDS011;65814;51.134;16.980;2023-03-20T07:14:20;23.20;;;15.50;;
76848;SDS011;65814;51.134;16.980;2023-03-20T07:16:49;22.30;;;14.40;;
76848;SDS011;65814;51.134;16.980;2023-03-20T07:19:17;21.30;;;14.80;;
76848;SDS011;65814;51.134;16.980;2023-03-20T07:21:45;22.60;;;15.80;;
76848;SDS011;65814;51.134;16.980;2023-03-20T07:24:13;18.30;;;15.10;;
76848;SDS011;65814;51.134;16.980;2023-03-20T07:26:41;19.90;;;15.10;;
76848;SDS011;65814;51.134;16.980;2023-03-20T07:29:09;20.30;;;15.40;;
76848;SDS011;65814;51.134;16.980;2023-03-20T07:31:39;24.10;;;15.60;;
76848;SDS011;65814;51.134;16.980;2023-03-20T07:34:07;21.30;;;15.40;;
76848;SDS011;65814;51.134;16.980;2023-03-20T07:36:35;22.20;;;16.50;;
76848;SDS011;65814;51.134;16.980;2023-03-20T07:39:03;21.20;;;15.20;;
76848;SDS011;65814;51.134;16.980;2023-03-20T07:41:31;23.40;;;14.80;;
76848;SDS011;65814;51.134;16.980;2023-03-20T07:43:59;23.00;;;14.60;;
76848;SDS011;65814;51.134;16.980;2023-03-20T07:46:27;19.80;;;13.90;;
76848;SDS011;65814;51.134;16.980;2023-03-20T07:48:55;26.50;;;16.60;;
76848;SDS011;65814;51.134;16.980;2023-03-20T07:51:24;24.50;;;15.30;;
76848;SDS011;65814;51.134;16.980;2023-03-20T07:53:52;21.60;;;15.20;;
76848;SDS011;65814;51.134;16.980;2023-03-20T07:56:20;19.50;;;16.30;;
76848;SDS011;65814;51.134;16.980;2023-03-20T07:58:48;22.70;;;14.70;;
76848;SDS011;65814;51.134;16.980;2023-03-20T08:01:16;21.10;;;17.30;;
76848;SDS011;65814;51.134;16.980;2023-03-20T08:03:45;20.20;;;14.30;;
76848;SDS011;65814;51.134;16.980;2023-03-20T08:06:14;24.60;;;14.80;;
76848;SDS011;65814;51.134;16.980;2023-03-20T08:08:42;22.50;;;15.50;;
76848;SDS011;65814;51.134;16.980;2023-03-20T08:11:11;24.90;;;17.00;;
76848;SDS011;65814;51.134;16.980;2023-03-20T08:13:40;24.30;;;17.10;;
76848;SDS011;65814;51.134;16.980;2023-03-20T08:16:08;24.40;;;17.20;;
76848;SDS011;65814;51.134;16.980;2023-03-20T08:18:36;24.30;;;18.80;;
76848;SDS011;65814;51.134;16.980;2023-03-20T08:21:04;27.30;;;18.00;;
76848;SDS011;65814;51.134;16.980;2023-03-20T08:23:32;23.40;;;17.80;;
76848;SDS011;65814;51.134;16.980;2023-03-20T08:26:00;21.90;;;17.00;;
76848;SDS011;65814;51.134;16.980;2023-03-20T08:28:28;30.60;;;17.90;;
76848;SDS011;65814;51.134;16.980;2023-03-20T08:31:13;26.40;;;18.60;;
76848;SDS011;65814;51.134;16.980;2023-03-20T08:33:45;26.60;;;17.50;;
76848;SDS011;65814;51.134;16.980;2023-03-20T08:36:13;26.40;;;18.50;;
76848;SDS011;65814;51.134;16.980;2023-03-20T08:38:42;26.40;;;20.10;;
76848;SDS011;65814;51.134;16.980;2023-03-20T08:41:10;29.60;;;20.30;;
76848;SDS011;65814;51.134;16.980;2023-03-20T08:43:38;26.70;;;19.60;;
76848;SDS011;65814;51.134;16.980;2023-03-20T08:46:06;28.80;;;18.30;;
76848;SDS011;65814;51.134;16.980;2023-03-20T08:48:34;23.80;;;17.70;;
76848;SDS011;65814;51.134;16.980;2023-03-20T08:51:03;28.20;;;18.40;;
76848;SDS011;65814;51.134;16.980;2023-03-20T08:53:31;28.60;;;19.30;;
76848;SDS011;65814;51.134;16.980;2023-03-20T08:55:59;28.80;;;19.20;;
76848;SDS011;65814;51.134;16.980;2023-03-20T08:58:28;27.80;;;19.00;;
76848;SDS011;65814;51.134;16.980;2023-03-20T09:00:56;28.50;;;19.10;;
76848;SDS011;65814;51.134;16.980;2023-03-20T09:03:23;26.20;;;19.70;;
76848;SDS011;65814;51.134;16.980;2023-03-20T09:05:51;25.60;;;19.20;;
76848;SDS011;65814;51.134;16.980;2023-03-20T09:08:19;27.80;;;18.80;;
76848;SDS011;65814;51.134;16.980;2023-03-20T09:10:47;29.50;;;17.90;;
76848;SDS011;65814;51.134;16.980;2023-03-20T09:13:19;25.00;;;17.70;;
76848;SDS011;65814;51.134;16.980;2023-03-20T09:15:54;26.80;;;18.10;;
76848;SDS011;65814;51.134;16.980;2023-03-20T09:18:24;27.50;;;18.10;;
76848;SDS011;65814;51.134;16.980;2023-03-20T09:20:52;27.10;;;19.40;;
76848;SDS011;65814;51.134;16.980;2023-03-20T09:23:21;27.10;;;18.80;;
76848;SDS011;65814;51.134;16.980;2023-03-20T09:25:49;27.80;;;19.50;;
76848;SDS011;65814;51.134;16.980;2023-03-20T09:28:17;28.40;;;18.20;;
76848;SDS011;65814;51.134;16.980;2023-03-20T09:30:45;27.60;;;18.50;;
76848;SDS011;65814;51.134;16.980;2023-03-20T09:33:13;23.80;;;17.50;;
76848;SDS011;65814;51.134;16.980;2023-03-20T09:35:41;24.10;;;17.90;;
76848;SDS011;65814;51.134;16.980;2023-03-20T09:38:10;24.70;;;17.20;;
76848;SDS011;65814;51.134;16.980;2023-03-20T09:40:52;24.60;;;18.70;;
76848;SDS011;65814;51.134;16.980;2023-03-20T09:43:27;24.80;;;18.30;;
76848;SDS011;65814;51.134;16.980;2023-03-20T09:49:01;24.30;;;17.00;;
76848;SDS011;65814;51.134;16.980;2023-03-20T09:51:52;31.40;;;18.00;;
76848;SDS011;65814;51.134;16.980;2023-03-20T09:55:09;22.50;;;15.60;;
76848;SDS011;65814;51.134;16.980;2023-03-20T09:57:23;27.50;;;18.00;;
76848;SDS011;65814;51.134;16.980;2023-03-20T10:02:59;24.10;;;17.20;;
76848;SDS011;65814;51.134;16.980;2023-03-20T10:05:41;24.60;;;17.50;;
76848;SDS011;65814;51.134;16.980;2023-03-20T10:08:12;22.60;;;16.30;;
76848;SDS011;65814;51.134;16.980;2023-03-20T10:16:34;20.50;;;13.80;;
76848;SDS011;65814;51.134;16.980;2023-03-20T10:19:18;20.70;;;15.00;;
76848;SDS011;65814;51.134;16.980;2023-03-20T10:22:13;20.40;;;14.20;;
76848;SDS011;65814;51.134;16.980;2023-03-20T10:24:43;19.50;;;14.00;;
76848;SDS011;65814;51.134;16.980;2023-03-20T10:38:11;16.50;;;12.30;;
76848;SDS011;65814;51.134;16.980;2023-03-20T10:40:42;15.70;;;12.40;;
76848;SDS011;65814;51.134;16.980;2023-03-20T10:43:13;17.40;;;12.70;;
76848;SDS011;65814;51.134;16.980;2023-03-20T10:45:45;17.20;;;12.60;;
76848;SDS011;65814;51.134;16.980;2023-03-20T10:48:17;15.90;;;11.80;;
76848;SDS011;65814;51.134;16.980;2023-03-20T10:50:55;14.60;;;12.40;;
76848;SDS011;65814;51.134;16.980;2023-03-20T10:53:28;13.70;;;11.60;;
76848;SDS011;65814;51.134;16.980;2023-03-20T10:56:09;13.90;;;11.40;;
76848;SDS011;65814;51.134;16.980;2023-03-20T10:58:44;14.70;;;11.40;;
76848;SDS011;65814;51.134;16.980;2023-03-20T11:01:13;14.80;;;10.80;;
76848;SDS011;65814;51.134;16.980;2023-03-20T11:03:42;14.50;;;10.80;;
76848;SDS011;65814;51.134;16.980;2023-03-20T11:06:17;17.60;;;12.10;;
76848;SDS011;65814;51.134;16.980;2023-03-20T11:08:48;14.10;;;11.30;;
76848;SDS011;65814;51.134;16.980;2023-03-20T11:11:21;17.50;;;14.60;;
76848;SDS011;65814;51.134;16.980;2023-03-20T11:13:51;15.40;;;12.20;;
76848;SDS011;65814;51.134;16.980;2023-03-20T11:16:23;13.80;;;11.40;;
76848;SDS011;65814;51.134;16.980;2023-03-20T11:18:55;15.20;;;12.70;;
76848;SDS011;65814;51.134;16.980;2023-03-20T11:21:32;15.40;;;12.30;;
76848;SDS011;65814;51.134;16.980;2023-03-20T11:24:02;14.60;;;12.50;;
76848;SDS011;65814;51.134;16.980;2023-03-20T11:29:04;13.60;;;12.20;;
76848;SDS011;65814;51.134;16.980;2023-03-20T11:31:35;13.00;;;11.50;;
76848;SDS011;65814;51.134;16.980;2023-03-20T11:36:47;15.00;;;12.20;;
76848;SDS011;65814;51.134;16.980;2023-03-20T11:39:36;13.70;;;12.20;;
76848;SDS011;65814;51.134;16.980;2023-03-20T11:42:20;15.70;;;13.30;;
76848;SDS011;65814;51.134;16.980;2023-03-20T11:44:57;16.60;;;14.20;;
76848;SDS011;65814;51.134;16.980;2023-03-20T11:47:31;19.40;;;15.00;;
76848;SDS011;65814;51.134;16.980;2023-03-20T11:50:02;18.10;;;15.50;;
76848;SDS011;65814;51.134;16.980;2023-03-20T11:52:33;19.30;;;15.80;;
76848;SDS011;65814;51.134;16.980;2023-03-20T11:55:04;24.40;;;16.00;;
76848;SDS011;65814;51.134;16.980;2023-03-20T11:57:35;17.50;;;15.20;;
76848;SDS011;65814;51.134;16.980;2023-03-20T12:02:33;21.60;;;18.00;;
76848;SDS011;65814;51.134;16.980;2023-03-20T12:05:16;22.90;;;19.00;;
76848;SDS011;65814;51.134;16.980;2023-03-20T12:07:57;18.40;;;16.40;;
76848;SDS011;65814;51.134;16.980;2023-03-20T12:10:30;22.50;;;18.40;;
76848;SDS011;65814;51.134;16.980;2023-03-20T12:15:50;19.60;;;17.70;;
76848;SDS011;65814;51.134;16.980;2023-03-20T12:21:03;18.90;;;16.40;;
76848;SDS011;65814;51.134;16.980;2023-03-20T12:26:31;19.00;;;15.70;;
76848;SDS011;65814;51.134;16.980;2023-03-20T12:31:50;16.40;;;14.60;;
76848;SDS011;65814;51.134;16.980;2023-03-20T12:34:37;18.70;;;14.80;;
76848;SDS011;65814;51.134;16.980;2023-03-20T12:37:09;19.00;;;15.50;;
76848;SDS011;65814;51.134;16.980;2023-03-20T12:39:47;17.10;;;14.50;;
76848;SDS011;65814;51.134;16.980;2023-03-20T13:03:42;15.60;;;14.00;;
76848;SDS011;65814;51.134;16.980;2023-03-20T13:06:29;13.90;;;12.40;;
76848;SDS011;65814;51.134;16.980;2023-03-20T13:22:55;12.20;;;8.50;;
76848;SDS011;65814;51.134;16.980;2023-03-20T13:30:42;11.60;;;8.30;;
76848;SDS011;65814;51.134;16.980;2023-03-20T13:39:20;7.10;;;4.90;;
76848;SDS011;65814;51.134;16.980;2023-03-20T13:41:53;6.90;;;5.00;;
76848;SDS011;65814;51.134;16.980;2023-03-20T13:44:22;7.20;;;4.80;;
76848;SDS011;65814;51.134;16.980;2023-03-20T13:46:55;5.30;;;4.80;;
76848;SDS011;65814;51.134;16.980;2023-03-20T13:49:28;6.80;;;5.20;;
76848;SDS011;65814;51.134;16.980;2023-03-20T13:52:08;8.40;;;6.00;;
76848;SDS011;65814;51.134;16.980;2023-03-20T13:57:47;9.90;;;7.70;;
76848;SDS011;65814;51.134;16.980;2023-03-20T14:01:09;8.90;;;7.10;;
76848;SDS011;65814;51.134;16.980;2023-03-20T14:03:39;9.30;;;8.30;;
76848;SDS011;65814;51.134;16.980;2023-03-20T14:06:15;9.80;;;8.80;;
76848;SDS011;65814;51.134;16.980;2023-03-20T14:08:48;10.30;;;9.20;;
76848;SDS011;65814;51.134;16.980;2023-03-20T14:13:49;11.50;;;10.20;;
76848;SDS011;65814;51.134;16.980;2023-03-20T14:16:19;10.50;;;9.30;;
76848;SDS011;65814;51.134;16.980;2023-03-20T14:18:48;15.70;;;11.00;;
76848;SDS011;65814;51.134;16.980;2023-03-20T14:21:18;12.20;;;11.00;;
76848;SDS011;65814;51.134;16.980;2023-03-20T14:23:50;13.20;;;12.00;;
76848;SDS011;65814;51.134;16.980;2023-03-20T14:26:26;14.90;;;11.70;;
76848;SDS011;65814;51.134;16.980;2023-03-20T14:29:01;12.80;;;11.40;;
76848;SDS011;65814;51.134;16.980;2023-03-20T14:31:49;13.00;;;11.70;;
76848;SDS011;65814;51.134;16.980;2023-03-20T14:34:22;16.10;;;12.80;;
76848;SDS011;65814;51.134;16.980;2023-03-20T14:39:33;13.10;;;11.10;;
76848;SDS011;65814;51.134;16.980;2023-03-20T14:42:06;14.90;;;11.10;;
76848;SDS011;65814;51.134;16.980;2023-03-20T14:49:50;7.50;;;6.40;;
76848;SDS011;65814;51.134;16.980;2023-03-20T15:03:51;5.30;;;4.60;;
76848;SDS011;65814;51.134;16.980;2023-03-20T15:06:23;5.10;;;4.00;;
76848;SDS011;65814;51.134;16.980;2023-03-20T15:08:54;6.30;;;4.60;;
76848;SDS011;65814;51.134;16.980;2023-03-20T15:11:27;8.20;;;4.10;;
76848;SDS011;65814;51.134;16.980;2023-03-20T15:13:56;5.60;;;4.30;;
76848;SDS011;65814;51.134;16.980;2023-03-20T15:16:26;3.80;;;3.30;;
76848;SDS011;65814;51.134;16.980;2023-03-20T15:18:56;3.80;;;3.10;;
76848;SDS011;65814;51.134;16.980;2023-03-20T15:24:05;4.20;;;3.40;;
76848;SDS011;65814;51.134;16.980;2023-03-20T15:26:34;5.40;;;2.90;;
76848;SDS011;65814;51.134;16.980;2023-03-20T15:29:03;3.80;;;3.20;;
76848;SDS011;65814;51.134;16.980;2023-03-20T15:31:34;4.20;;;3.30;;
76848;SDS011;65814;51.134;16.980;2023-03-20T15:34:08;4.50;;;3.20;;
76848;SDS011;65814;51.134;16.980;2023-03-20T15:36:41;4.00;;;3.10;;
76848;SDS011;65814;51.134;16.980;2023-03-20T15:39:20;6.80;;;4.10;;
76848;SDS011;65814;51.134;16.980;2023-03-20T15:41:53;4.90;;;4.00;;
76848;SDS011;65814;51.134;16.980;2023-03-20T15:44:26;4.30;;;3.10;;
76848;SDS011;65814;51.134;16.980;2023-03-20T15:49:23;3.10;;;2.50;;
76848;SDS011;65814;51.134;16.980;2023-03-20T15:51:52;3.40;;;2.60;;
76848;SDS011;65814;51.134;16.980;2023-03-20T15:54:23;3.90;;;3.10;;
76848;SDS011;65814;51.134;16.980;2023-03-20T15:56:51;3.40;;;2.70;;
76848;SDS011;65814;51.134;16.980;2023-03-20T15:59:23;4.60;;;3.20;;
76848;SDS011;65814;51.134;16.980;2023-03-20T16:01:54;4.20;;;2.90;;
76848;SDS011;65814;51.134;16.980;2023-03-20T16:04:23;4.70;;;3.60;;
76848;SDS011;65814;51.134;16.980;2023-03-20T16:06:56;4.60;;;3.30;;
76848;SDS011;65814;51.134;16.980;2023-03-20T16:09:26;6.40;;;3.70;;
76848;SDS011;65814;51.134;16.980;2023-03-20T16:11:56;5.80;;;3.90;;
76848;SDS011;65814;51.134;16.980;2023-03-20T16:14:30;6.10;;;3.80;;
76848;SDS011;65814;51.134;16.980;2023-03-20T16:17:00;7.30;;;4.20;;
76848;SDS011;65814;51.134;16.980;2023-03-20T16:19:29;4.60;;;3.50;;
76848;SDS011;65814;51.134;16.980;2023-03-20T16:21:58;6.20;;;4.10;;
76848;SDS011;65814;51.134;16.980;2023-03-20T16:24:35;6.20;;;3.90;;
76848;SDS011;65814;51.134;16.980;2023-03-20T16:27:05;6.60;;;4.60;;
76848;SDS011;65814;51.134;16.980;2023-03-20T16:29:34;4.80;;;3.70;;
76848;SDS011;65814;51.134;16.980;2023-03-20T16:32:04;8.70;;;5.10;;
76848;SDS011;65814;51.134;16.980;2023-03-20T16:34:54;6.10;;;4.60;;
76848;SDS011;65814;51.134;16.980;2023-03-20T16:40:03;6.20;;;5.10;;
76848;SDS011;65814;51.134;16.980;2023-03-20T16:42:38;6.30;;;4.90;;
76848;SDS011;65814;51.134;16.980;2023-03-20T16:45:15;6.70;;;4.80;;
76848;SDS011;65814;51.134;16.980;2023-03-20T16:47:51;6.90;;;5.30;;
76848;SDS011;65814;51.134;16.980;2023-03-20T16:50:44;8.10;;;5.90;;
76848;SDS011;65814;51.134;16.980;2023-03-20T16:53:15;8.00;;;5.30;;
76848;SDS011;65814;51.134;16.980;2023-03-20T16:55:46;9.70;;;5.30;;
76848;SDS011;65814;51.134;16.980;2023-03-20T16:58:20;6.50;;;5.30;;
76848;SDS011;65814;51.134;16.980;2023-03-20T17:00:57;6.30;;;5.50;;
76848;SDS011;65814;51.134;16.980;2023-03-20T17:08:49;9.00;;;5.70;;
76848;SDS011;65814;51.134;16.980;2023-03-20T17:11:25;9.00;;;6.20;;
76848;SDS011;65814;51.134;16.980;2023-03-20T17:13:53;9.90;;;6.50;;
76848;SDS011;65814;51.134;16.980;2023-03-20T17:16:22;8.20;;;6.00;;
76848;SDS011;65814;51.134;16.980;2023-03-20T17:19:04;8.90;;;6.00;;
76848;SDS011;65814;51.134;16.980;2023-03-20T17:21:34;8.00;;;6.10;;
76848;SDS011;65814;51.134;16.980;2023-03-20T17:24:02;8.70;;;6.40;;
76848;SDS011;65814;51.134;16.980;2023-03-20T17:26:31;8.10;;;5.60;;
76848;SDS011;65814;51.134;16.980;2023-03-20T17:28:59;8.20;;;6.30;;
76848;SDS011;65814;51.134;16.980;2023-03-20T17:31:27;11.80;;;8.40;;
76848;SDS011;65814;51.134;16.980;2023-03-20T17:33:56;10.20;;;7.90;;
76848;SDS011;65814;51.134;16.980;2023-03-20T17:36:25;9.90;;;7.00;;
76848;SDS011;65814;51.134;16.980;2023-03-20T17:38:54;9.50;;;6.90;;
76848;SDS011;65814;51.134;16.980;2023-03-20T17:41:23;9.40;;;6.70;;
76848;SDS011;65814;51.134;16.980;2023-03-20T17:43:52;11.10;;;8.30;;